Time;durP1;ratioP1;P1;durP2;ratioP2;P2;SDS_P1;SDS_P2;PMS_P1;PMS_P2;Temp;Humidity;BMP_temperature;BMP_pressure;BME280_temperature;BME280_humidity;BME280_pressure;Samples;Min_cycle;Max_cycle;Signal;HPM_P1;HPM_P2
2023/06/11 00:02:24;;;;;;;13.65;5.35;;;19.60;99.90;;;;;;5052361;28;20293;-80
2023/06/11 00:04:51;;;;;;;11.32;5.75;;;19.60;99.90;;;;;;5052277;28;20198;-80
2023/06/11 00:07:18;;;;;;;9.70;5.57;;;19.60;99.90;;;;;;5052343;28;20194;-79
2023/06/11 00:09:45;;;;;;;9.02;5.55;;;19.60;99.90;;;;;;5033880;28;20222;-80
2023/06/11 00:12:12;;;;;;;10.13;5.63;;;19.60;99.90;;;;;;5032103;28;20281;-79
2023/06/11 00:14:39;;;;;;;11.38;6.05;;;19.60;99.90;;;;;;5032612;28;20653;-80
2023/06/11 00:17:06;;;;;;;8.40;5.30;;;19.60;99.90;;;;;;5031784;28;20222;-81
2023/06/11 00:19:34;;;;;;;8.45;5.47;;;19.60;99.90;;;;;;5032121;28;20202;-81
2023/06/11 00:22:02;;;;;;;7.85;5.28;;;19.50;99.90;;;;;;5042987;28;20517;-81
2023/06/11 00:24:29;;;;;;;9.02;5.30;;;19.50;99.90;;;;;;5051457;28;20675;-81
2023/06/11 00:26:59;;;;;;;7.60;4.97;;;19.50;99.90;;;;;;5052266;28;20618;-82
2023/06/11 00:29:26;;;;;;;7.07;4.88;;;19.50;99.90;;;;;;5052691;28;20201;-81
2023/06/11 00:31:53;;;;;;;8.02;5.18;;;19.50;99.90;;;;;;5033755;28;20210;-80
2023/06/11 00:34:20;;;;;;;9.80;5.80;;;19.50;99.90;;;;;;5032516;28;20205;-80
2023/06/11 00:36:48;;;;;;;10.38;5.18;;;19.50;99.90;;;;;;5032369;28;20209;-80
2023/06/11 00:39:15;;;;;;;6.07;4.55;;;19.50;99.90;;;;;;5031397;28;20198;-80
2023/06/11 00:41:45;;;;;;;6.22;4.18;;;19.40;99.90;;;;;;5032667;28;20230;-80
2023/06/11 00:44:17;;;;;;;5.53;4.32;;;19.40;99.90;;;;;;5031915;28;20621;-80
2023/06/11 00:46:45;;;;;;;7.20;4.50;;;19.40;99.90;;;;;;5032038;28;20491;-80
2023/06/11 00:49:12;;;;;;;7.35;4.32;;;19.40;99.90;;;;;;5031894;28;20238;-81
2023/06/11 00:51:42;;;;;;;7.95;4.88;;;19.30;99.90;;;;;;5032635;28;20258;-81
2023/06/11 00:54:13;;;;;;;7.82;4.60;;;19.40;99.90;;;;;;5031364;28;20265;-81
2023/06/11 00:56:41;;;;;;;9.90;4.72;;;19.40;99.90;;;;;;5031690;28;20537;-79
2023/06/11 00:59:08;;;;;;;9.77;5.38;;;19.30;99.90;;;;;;5031793;28;20515;-79
2023/06/11 01:01:41;;;;;;;8.65;4.90;;;19.30;99.90;;;;;;5034810;28;20195;-79
2023/06/11 01:04:13;;;;;;;6.95;4.63;;;19.30;99.90;;;;;;5036548;28;20191;-79
2023/06/11 01:06:46;;;;;;;8.65;4.97;;;19.30;99.90;;;;;;5036006;28;20226;-79
2023/06/11 01:09:14;;;;;;;9.48;5.35;;;19.30;99.90;;;;;;5036113;28;20206;-78
2023/06/11 01:11:41;;;;;;;8.55;5.50;;;19.30;99.90;;;;;;5035875;28;20310;-79
2023/06/11 01:14:13;;;;;;;11.40;5.78;;;19.30;99.90;;;;;;5035526;28;20207;-79
2023/06/11 01:16:47;;;;;;;14.25;6.35;;;19.30;99.90;;;;;;5035647;28;20298;-79
2023/06/11 01:19:28;;;;;;;7.43;4.93;;;19.30;99.90;;;;;;5036242;28;20198;-79
2023/06/11 01:22:01;;;;;;;10.88;6.32;;;19.30;99.90;;;;;;5035098;28;20222;-76
2023/06/11 01:24:43;;;;;;;8.20;4.40;;;19.30;99.90;;;;;;5036025;28;20198;-79
2023/06/11 01:27:19;;;;;;;8.43;5.88;;;19.30;99.90;;;;;;5035499;28;20572;-79
2023/06/11 01:29:50;;;;;;;10.23;6.38;;;19.30;99.90;;;;;;5038151;28;20182;-79
2023/06/11 01:32:23;;;;;;;8.32;5.88;;;19.30;99.90;;;;;;5055588;28;20224;-81
2023/06/11 01:34:50;;;;;;;9.13;5.25;;;19.30;99.90;;;;;;5055040;28;20477;-77
2023/06/11 01:37:17;;;;;;;11.23;6.15;;;19.40;99.90;;;;;;5037653;28;20302;-79
2023/06/11 01:39:45;;;;;;;9.25;6.18;;;19.30;99.90;;;;;;5035546;28;20611;-79
2023/06/11 01:42:12;;;;;;;8.93;5.93;;;19.30;99.90;;;;;;5034663;28;20246;-78
2023/06/11 01:44:39;;;;;;;11.43;6.47;;;19.30;99.90;;;;;;5035611;28;20195;-76
2023/06/11 01:47:07;;;;;;;10.32;6.68;;;19.30;99.90;;;;;;5035562;28;20202;-79
2023/06/11 01:49:35;;;;;;;11.55;6.90;;;19.30;99.90;;;;;;5035256;28;20625;-77
2023/06/11 01:52:01;;;;;;;7.28;4.93;;;19.30;99.90;;;;;;5035239;28;20234;-78
2023/06/11 01:54:29;;;;;;;8.23;5.88;;;19.30;99.90;;;;;;5035903;28;20260;-78
2023/06/11 01:56:56;;;;;;;12.35;6.43;;;19.30;99.90;;;;;;5034852;28;20191;-80
2023/06/11 01:59:22;;;;;;;7.50;5.35;;;19.30;99.90;;;;;;5034846;28;20286;-78
2023/06/11 02:01:52;;;;;;;9.70;7.18;;;19.20;99.90;;;;;;5035149;28;20191;-78
2023/06/11 02:04:21;;;;;;;12.20;6.47;;;19.20;99.90;;;;;;5034294;28;20855;-79
2023/06/11 02:06:50;;;;;;;7.45;5.03;;;19.20;99.90;;;;;;5034775;28;20603;-79
2023/06/11 02:09:17;;;;;;;8.32;5.80;;;19.20;99.90;;;;;;5034860;28;20248;-77
2023/06/11 02:11:44;;;;;;;7.95;6.22;;;19.10;99.90;;;;;;5034209;28;20226;-79
2023/06/11 02:14:11;;;;;;;9.25;5.35;;;19.10;99.90;;;;;;5051633;28;20221;-79
2023/06/11 02:16:38;;;;;;;9.32;6.07;;;19.10;99.90;;;;;;5054021;28;20198;-79
2023/06/11 02:19:05;;;;;;;9.85;6.22;;;19.10;99.90;;;;;;5047408;28;20651;-79
2023/06/11 02:21:33;;;;;;;12.25;6.13;;;19.10;99.90;;;;;;5034521;28;20966;-79
2023/06/11 02:24:00;;;;;;;10.85;7.38;;;19.00;99.90;;;;;;5034070;28;20191;-78
2023/06/11 02:26:27;;;;;;;8.63;6.65;;;19.00;99.90;;;;;;5034175;28;20290;-78
2023/06/11 02:28:54;;;;;;;8.98;5.03;;;19.00;99.90;;;;;;5034804;28;20210;-79
2023/06/11 02:31:21;;;;;;;11.80;6.22;;;18.90;99.90;;;;;;5033993;28;20226;-78
2023/06/11 02:33:48;;;;;;;9.38;6.57;;;18.90;99.90;;;;;;5034331;28;20197;-79
2023/06/11 02:36:15;;;;;;;9.60;6.82;;;18.90;99.90;;;;;;5034489;28;20245;-79
2023/06/11 02:38:43;;;;;;;9.85;6.43;;;18.80;99.90;;;;;;5034061;28;20202;-79
2023/06/11 02:41:09;;;;;;;10.82;6.40;;;18.80;99.90;;;;;;5034403;28;20225;-79
2023/06/11 02:43:36;;;;;;;9.20;6.60;;;18.80;99.90;;;;;;5033855;28;20657;-78
2023/06/11 02:46:03;;;;;;;7.00;5.63;;;18.70;99.90;;;;;;5035747;28;20221;-76
2023/06/11 02:48:30;;;;;;;8.60;5.68;;;18.70;99.90;;;;;;5053412;28;20219;-77
2023/06/11 02:50:57;;;;;;;10.27;6.25;;;18.70;99.90;;;;;;5047213;28;20207;-77
2023/06/11 02:53:24;;;;;;;7.38;4.90;;;18.70;99.90;;;;;;5033323;28;20293;-76
2023/06/11 02:55:52;;;;;;;8.10;5.05;;;18.60;99.90;;;;;;5034175;28;20206;-76
2023/06/11 02:58:20;;;;;;;6.72;4.95;;;18.60;99.90;;;;;;5033906;28;20281;-76
2023/06/11 03:00:46;;;;;;;9.02;5.88;;;18.60;99.90;;;;;;5033168;28;20298;-76
2023/06/11 03:03:13;;;;;;;5.85;5.15;;;18.60;99.90;;;;;;5033687;28;20207;-76
2023/06/11 03:05:40;;;;;;;5.80;4.95;;;18.50;99.90;;;;;;5033678;28;20294;-76
2023/06/11 03:08:07;;;;;;;5.57;5.00;;;18.50;99.90;;;;;;5032951;28;20209;-77
2023/06/11 03:10:34;;;;;;;6.97;5.28;;;18.40;99.90;;;;;;5033729;28;20317;-76
2023/06/11 03:13:02;;;;;;;6.28;5.28;;;18.40;99.90;;;;;;5032611;28;20199;-76
2023/06/11 03:15:30;;;;;;;8.65;6.47;;;18.40;99.90;;;;;;5033068;28;20206;-76
2023/06/11 03:17:57;;;;;;;5.90;4.97;;;18.40;99.90;;;;;;5040985;28;20209;-77
2023/06/11 03:20:24;;;;;;;6.43;5.28;;;18.30;99.90;;;;;;5052599;28;20205;-79
2023/06/11 03:22:51;;;;;;;6.95;5.47;;;18.30;99.90;;;;;;5052651;28;20256;-78
2023/06/11 03:25:18;;;;;;;6.93;5.18;;;18.30;99.90;;;;;;5048132;28;20237;-77
2023/06/11 03:27:45;;;;;;;6.57;5.90;;;18.30;99.90;;;;;;5032605;28;20190;-77
2023/06/11 03:30:14;;;;;;;7.22;5.82;;;18.20;99.90;;;;;;5033260;28;20245;-79
2023/06/11 03:32:41;;;;;;;7.32;6.40;;;18.20;99.90;;;;;;5033600;28;20203;-78
2023/06/11 03:35:08;;;;;;;8.02;6.15;;;18.20;99.90;;;;;;5032567;28;20588;-78
2023/06/11 03:37:35;;;;;;;9.55;7.45;;;18.20;99.90;;;;;;5033162;28;20198;-77
2023/06/11 03:40:02;;;;;;;11.05;7.53;;;18.20;99.90;;;;;;5032928;28;20607;-77
2023/06/11 03:42:29;;;;;;;7.55;6.80;;;18.20;99.90;;;;;;5031875;28;20281;-78
2023/06/11 03:44:56;;;;;;;9.00;7.55;;;18.20;99.90;;;;;;5032607;28;20199;-77
2023/06/11 03:47:24;;;;;;;7.32;6.10;;;18.20;99.90;;;;;;5043139;28;20206;-78
2023/06/11 03:49:51;;;;;;;7.63;6.13;;;18.10;99.90;;;;;;5052129;28;20225;-76
2023/06/11 03:52:18;;;;;;;8.85;6.72;;;18.20;99.90;;;;;;5048343;28;20634;-77
2023/06/11 03:54:45;;;;;;;9.18;7.63;;;18.20;99.90;;;;;;5033240;28;20208;-78
2023/06/11 03:57:12;;;;;;;8.23;6.15;;;18.20;99.90;;;;;;5031920;28;20211;-78
2023/06/11 03:59:39;;;;;;;11.95;6.65;;;18.20;99.90;;;;;;5032707;28;20264;-78
2023/06/11 04:02:06;;;;;;;8.73;7.28;;;18.20;99.90;;;;;;5032090;28;20290;-77
2023/06/11 04:04:34;;;;;;;10.70;7.82;;;18.20;99.90;;;;;;5032331;28;20198;-78
2023/06/11 04:07:01;;;;;;;8.63;6.88;;;18.30;99.90;;;;;;5032962;28;20317;-78
2023/06/11 04:09:28;;;;;;;10.68;7.28;;;18.30;99.90;;;;;;5032280;28;20302;-77
2023/06/11 04:11:55;;;;;;;8.90;8.00;;;18.30;99.90;;;;;;5032745;28;20313;-78
2023/06/11 04:14:22;;;;;;;13.02;9.00;;;18.30;99.90;;;;;;5032820;28;20293;-77
2023/06/11 04:16:49;;;;;;;9.65;7.47;;;18.30;99.90;;;;;;5031886;28;20234;-78
2023/06/11 04:19:16;;;;;;;11.07;8.10;;;18.40;99.90;;;;;;5032522;28;20272;-78
2023/06/11 04:21:44;;;;;;;8.77;7.35;;;18.40;99.90;;;;;;5032774;28;20245;-78
2023/06/11 04:24:11;;;;;;;9.82;8.82;;;18.50;99.90;;;;;;5031727;28;20204;-78
2023/06/11 04:26:40;;;;;;;8.30;6.65;;;18.50;99.90;;;;;;5032558;28;20199;-78
2023/06/11 04:29:08;;;;;;;10.95;8.35;;;18.60;99.90;;;;;;5032459;28;20284;-79
2023/06/11 04:31:35;;;;;;;8.30;6.97;;;18.70;99.90;;;;;;5031611;28;20525;-79
2023/06/11 04:34:03;;;;;;;9.43;7.78;;;18.80;99.90;;;;;;5032564;28;20281;-78
2023/06/11 04:36:29;;;;;;;9.63;7.72;;;18.80;99.90;;;;;;5032326;28;20194;-77
2023/06/11 04:39:01;;;;;;;8.43;7.57;;;18.80;99.90;;;;;;5031249;28;20633;-78
2023/06/11 04:41:29;;;;;;;8.70;7.63;;;18.80;99.90;;;;;;5032221;28;20508;-77
2023/06/11 04:43:56;;;;;;;7.45;6.38;;;18.80;99.90;;;;;;5031865;28;20199;-79
2023/06/11 04:46:23;;;;;;;7.78;6.80;;;18.80;99.90;;;;;;5031471;28;20622;-77
2023/06/11 04:48:50;;;;;;;10.15;7.65;;;18.80;99.90;;;;;;5032825;28;20244;-79
2023/06/11 04:51:17;;;;;;;9.85;7.75;;;18.90;99.90;;;;;;5031400;28;20487;-77
2023/06/11 04:53:45;;;;;;;7.85;7.05;;;18.90;99.90;;;;;;5014971;28;20202;-77
2023/06/11 04:56:13;;;;;;;7.97;7.03;;;19.00;99.90;;;;;;5032069;28;20861;-77
2023/06/11 04:58:40;;;;;;;13.68;8.63;;;19.20;99.90;;;;;;5031476;28;20206;-78
2023/06/11 05:01:08;;;;;;;8.85;7.97;;;19.50;99.90;;;;;;5036827;28;20209;-77
2023/06/11 05:03:37;;;;;;;9.68;7.53;;;19.80;99.90;;;;;;5051583;28;20213;-78
2023/06/11 05:06:04;;;;;;;9.23;7.30;;;20.20;99.90;;;;;;5051368;28;20583;-77
2023/06/11 05:08:32;;;;;;;8.30;7.10;;;20.70;99.90;;;;;;5034803;28;20286;-78
2023/06/11 05:10:59;;;;;;;9.82;7.15;;;21.20;99.90;;;;;;5031781;28;20206;-78
2023/06/11 05:13:27;;;;;;;7.47;6.72;;;21.60;99.90;;;;;;5031255;28;20195;-76
2023/06/11 05:15:55;;;;;;;8.32;6.72;;;22.00;99.90;;;;;;5031816;28;20202;-76
2023/06/11 05:18:23;;;;;;;7.78;6.85;;;22.40;99.90;;;;;;5031594;28;20199;-77
2023/06/11 05:20:50;;;;;;;9.45;7.05;;;22.70;99.90;;;;;;5031431;28;20202;-76
2023/06/11 05:23:18;;;;;;;7.22;6.18;;;23.00;99.90;;;;;;5031672;28;20671;-78
2023/06/11 05:25:47;;;;;;;8.88;6.50;;;23.30;99.90;;;;;;5031340;28;20207;-78
2023/06/11 05:28:15;;;;;;;8.50;7.25;;;23.60;99.90;;;;;;5031046;28;20205;-78
2023/06/11 05:30:45;;;;;;;7.63;6.65;;;23.90;99.90;;;;;;5031430;28;20195;-80
2023/06/11 05:33:12;;;;;;;8.80;7.00;;;24.20;99.90;;;;;;5031310;28;20254;-77
2023/06/11 05:35:39;;;;;;;6.55;5.80;;;24.50;99.90;;;;;;5031096;28;20240;-77
2023/06/11 05:38:08;;;;;;;7.88;6.43;;;24.70;99.90;;;;;;5031500;28;20281;-76
2023/06/11 05:40:36;;;;;;;5.72;5.13;;;24.90;99.90;;;;;;5030865;28;20216;-77
2023/06/11 05:43:03;;;;;;;7.18;6.28;;;25.10;99.90;;;;;;5031424;28;20260;-77
2023/06/11 05:45:31;;;;;;;8.25;6.88;;;25.40;99.90;;;;;;5030948;28;20225;-78
2023/06/11 05:48:00;;;;;;;9.95;6.75;;;25.50;99.90;;;;;;5034401;28;20198;-80
2023/06/11 05:50:27;;;;;;;7.07;6.18;;;25.60;99.90;;;;;;5034758;28;20249;-78
2023/06/11 05:52:54;;;;;;;8.75;6.65;;;25.80;99.90;;;;;;5034964;28;20322;-79
2023/06/11 05:55:21;;;;;;;6.95;6.25;;;26.00;99.90;;;;;;5034122;28;20213;-79
2023/06/11 05:57:48;;;;;;;7.95;6.15;;;26.20;99.90;;;;;;5034937;28;20392;-79
2023/06/11 06:00:16;;;;;;;7.68;6.68;;;26.30;99.90;;;;;;5034029;28;20613;-77
2023/06/11 06:02:43;;;;;;;7.70;6.75;;;26.50;99.90;;;;;;5033833;28;20199;-78
2023/06/11 06:05:11;;;;;;;7.40;6.57;;;26.50;99.90;;;;;;5034774;28;20199;-79
2023/06/11 06:07:38;;;;;;;8.85;5.90;;;26.50;99.90;;;;;;5035095;28;20199;-80
2023/06/11 06:10:06;;;;;;;7.30;6.70;;;26.70;99.90;;;;;;5033983;28;20244;-80
2023/06/11 06:12:32;;;;;;;8.25;7.13;;;26.60;99.90;;;;;;5034413;28;20276;-80
2023/06/11 06:14:59;;;;;;;7.85;6.50;;;26.80;99.90;;;;;;5034172;28;20645;-80
2023/06/11 06:17:26;;;;;;;8.27;7.40;;;27.00;99.90;;;;;;5044886;28;20205;-80
2023/06/11 06:19:53;;;;;;;8.23;6.82;;;26.90;99.90;;;;;;5034794;28;20205;-79
2023/06/11 06:22:21;;;;;;;6.75;6.20;;;27.00;99.90;;;;;;5034475;28;20194;-79
2023/06/11 06:24:48;;;;;;;8.45;6.32;;;27.30;99.90;;;;;;5033623;28;20202;-80
2023/06/11 06:27:15;;;;;;;8.00;7.25;;;27.10;99.90;;;;;;5034311;28;20213;-77
2023/06/11 06:29:42;;;;;;;7.65;6.72;;;27.40;99.90;;;;;;5033583;28;20210;-79
2023/06/11 06:32:10;;;;;;;6.82;6.07;;;27.40;99.90;;;;;;5034079;28;20272;-78
2023/06/11 06:34:37;;;;;;;7.95;7.15;;;27.40;99.90;;;;;;5034060;28;20198;-78
2023/06/11 06:37:04;;;;;;;6.47;5.88;;;27.40;99.90;;;;;;5033329;28;20253;-78
2023/06/11 06:39:32;;;;;;;7.10;6.57;;;27.70;99.90;;;;;;5033372;28;20245;-76
2023/06/11 06:41:59;;;;;;;7.20;6.35;;;27.80;99.90;;;;;;5052692;28;20224;-80
2023/06/11 06:44:26;;;;;;;7.03;6.38;;;28.00;99.90;;;;;;5052980;28;20193;-79
2023/06/11 06:46:53;;;;;;;7.30;6.50;;;28.20;99.90;;;;;;5034639;28;20234;-79
2023/06/11 06:49:21;;;;;;;7.53;6.47;;;28.50;99.90;;;;;;5033790;28;20378;-78
2023/06/11 06:51:48;;;;;;;8.00;6.75;;;28.60;99.90;;;;;;5033303;28;20226;-79
2023/06/11 06:54:16;;;;;;;8.05;6.32;;;28.50;99.90;;;;;;5033696;28;20199;-81
2023/06/11 06:56:44;;;;;;;8.23;6.47;;;28.60;99.90;;;;;;5034097;28;20207;-81
2023/06/11 06:59:11;;;;;;;6.88;6.28;;;29.00;99.90;;;;;;5031882;28;20245;-79
2023/06/11 07:01:38;;;;;;;6.22;5.68;;;29.10;99.90;;;;;;5033782;28;20207;-80
2023/06/11 07:04:05;;;;;;;7.07;6.00;;;29.60;99.90;;;;;;5032994;28;20282;-78
2023/06/11 07:06:32;;;;;;;6.35;5.75;;;29.90;99.90;;;;;;5031640;28;20198;-81
2023/06/11 07:08:59;;;;;;;6.57;5.97;;;30.10;99.90;;;;;;5032674;28;20614;-76
2023/06/11 07:11:26;;;;;;;8.75;5.85;;;30.40;99.90;;;;;;5032537;28;20201;-78
2023/06/11 07:13:55;;;;;;;6.05;5.50;;;30.50;99.90;;;;;;5032052;28;20230;-79
2023/06/11 07:16:22;;;;;;;6.68;6.07;;;30.70;99.90;;;;;;5032699;28;20294;-79
2023/06/11 07:18:48;;;;;;;6.70;6.10;;;31.00;99.90;;;;;;5041430;28;20610;-77
2023/06/11 07:21:17;;;;;;;6.85;6.25;;;31.10;99.90;;;;;;5045485;28;20202;-82
2023/06/11 07:23:43;;;;;;;6.30;5.57;;;31.20;99.90;;;;;;5033332;28;20450;-82
2023/06/11 07:26:13;;;;;;;6.63;6.03;;;31.20;99.90;;;;;;5051867;28;20289;-79
2023/06/11 07:28:41;;;;;;;7.25;6.53;;;31.30;99.90;;;;;;5053474;28;20606;-82
2023/06/11 07:31:10;;;;;;;6.50;5.90;;;31.40;99.90;;;;;;5045623;28;20690;-81
2023/06/11 07:33:38;;;;;;;8.77;6.10;;;31.60;99.90;;;;;;5032995;28;20218;-83
2023/06/11 07:36:06;;;;;;;7.53;6.57;;;31.70;99.90;;;;;;5034730;28;20221;-82
2023/06/11 07:38:32;;;;;;;7.03;6.40;;;31.90;99.90;;;;;;5033733;28;20234;-79
2023/06/11 07:41:01;;;;;;;12.93;5.80;;;31.80;99.90;;;;;;5033250;28;20211;-83
2023/06/11 07:43:28;;;;;;;6.50;5.80;;;32.00;99.90;;;;;;5053420;28;20281;-82
2023/06/11 07:45:55;;;;;;;8.55;7.05;;;32.10;99.90;;;;;;5053104;28;20204;-81
2023/06/11 07:49:13;;;;;;;7.35;6.10;;;32.20;99.90;;;;;;5021124;28;20202;-85
2023/06/11 07:51:42;;;;;;;8.10;7.38;;;32.50;99.90;;;;;;5048101;28;20212;-79
2023/06/11 07:54:09;;;;;;;7.95;7.25;;;32.40;99.90;;;;;;5051276;28;20301;-78
2023/06/11 07:56:35;;;;;;;6.63;5.93;;;32.50;99.90;;;;;;5052500;28;20557;-81
2023/06/11 07:59:02;;;;;;;6.97;5.47;;;32.50;99.90;;;;;;5052918;28;20229;-84
2023/06/11 08:01:29;;;;;;;7.00;6.22;;;32.80;99.90;;;;;;5052287;28;20304;-82
2023/06/11 08:03:56;;;;;;;7.57;6.80;;;32.90;99.90;;;;;;5052029;28;20194;-82
2023/06/11 08:06:23;;;;;;;6.88;6.20;;;33.00;99.90;;;;;;5052046;28;20605;-81
2023/06/11 08:08:52;;;;;;;6.18;5.57;;;32.90;99.90;;;;;;5052628;28;20218;-87
2023/06/11 08:11:19;;;;;;;6.97;5.95;;;33.10;99.90;;;;;;5043916;28;20598;-83
2023/06/11 08:13:45;;;;;;;6.35;5.75;;;33.10;99.90;;;;;;5033711;28;20215;-84
2023/06/11 08:16:12;;;;;;;6.53;5.68;;;33.40;99.90;;;;;;5032667;28;20598;-79
2023/06/11 08:18:39;;;;;;;6.10;5.43;;;33.70;99.90;;;;;;5034102;28;20202;-88
2023/06/11 08:21:06;;;;;;;8.65;6.60;;;33.80;99.90;;;;;;5033194;28;20595;-76
2023/06/11 08:23:36;;;;;;;5.70;5.10;;;33.90;99.90;;;;;;5033084;28;20204;-83
2023/06/11 08:26:04;;;;;;;6.40;5.80;;;33.90;99.90;;;;;;5033291;28;20194;-78
2023/06/11 08:28:31;;;;;;;6.60;6.05;;;34.20;99.90;;;;;;5031659;28;20203;-79
2023/06/11 08:30:58;;;;;;;6.10;5.60;;;33.90;99.90;;;;;;5031256;28;20203;-76
2023/06/11 08:33:25;;;;;;;5.90;5.40;;;33.70;99.90;;;;;;5031401;28;20638;-78
2023/06/11 08:35:52;;;;;;;9.02;6.68;;;33.50;99.90;;;;;;5031746;28;20298;-77
2023/06/11 08:38:19;;;;;;;7.20;6.50;;;33.40;99.90;;;;;;5035957;28;20205;-78
2023/06/11 08:40:46;;;;;;;5.72;5.22;;;33.30;99.90;;;;;;5051550;28;20260;-77
2023/06/11 08:43:14;;;;;;;6.68;6.07;;;33.40;99.90;;;;;;5043482;28;20220;-78
2023/06/11 08:45:41;;;;;;;7.38;6.68;;;33.60;99.90;;;;;;5042334;28;20203;-77
2023/06/11 08:48:10;;;;;;;6.40;5.90;;;33.40;99.90;;;;;;5031035;28;20663;-77
2023/06/11 08:50:37;;;;;;;6.55;5.93;;;33.70;99.90;;;;;;5030527;28;20234;-78
2023/06/11 08:53:06;;;;;;;8.00;5.60;;;34.00;99.90;;;;;;5030510;28;20664;-76
2023/06/11 08:55:33;;;;;;;6.88;6.20;;;34.10;99.90;;;;;;5031887;28;20203;-80
2023/06/11 08:58:01;;;;;;;8.13;7.22;;;34.30;99.90;;;;;;5029543;28;20493;-81
2023/06/11 09:00:29;;;;;;;6.50;5.90;;;34.10;99.90;;;;;;5035588;28;20469;-80
2023/06/11 09:02:56;;;;;;;7.38;6.68;;;34.20;99.90;;;;;;5050327;28;20194;-79
2023/06/11 09:05:23;;;;;;;7.07;6.43;;;33.80;99.90;;;;;;5047146;28;20499;-78
2023/06/11 09:07:51;;;;;;;7.43;6.82;;;33.80;99.90;;;;;;5051209;28;20201;-77
2023/06/11 09:10:19;;;;;;;6.95;6.28;;;33.70;99.90;;;;;;5050987;28;20194;-82
2023/06/11 09:12:47;;;;;;;6.38;5.38;;;33.80;99.90;;;;;;5030773;28;20696;-80
2023/06/11 09:15:15;;;;;;;6.40;5.90;;;34.20;99.90;;;;;;5050526;28;20197;-81
2023/06/11 09:17:46;;;;;;;7.40;6.70;;;34.50;99.90;;;;;;5037161;28;20301;-82
2023/06/11 09:20:14;;;;;;;6.13;5.50;;;34.40;99.90;;;;;;5030548;28;20211;-79
2023/06/11 09:22:43;;;;;;;7.28;6.57;;;34.30;99.90;;;;;;5033514;28;20205;-79
2023/06/11 09:25:16;;;;;;;7.15;6.45;;;34.20;99.90;;;;;;5034369;28;20291;-77
2023/06/11 09:27:44;;;;;;;7.95;7.13;;;34.20;99.90;;;;;;5033342;28;20190;-77
2023/06/11 09:30:12;;;;;;;7.72;6.68;;;33.90;99.90;;;;;;5034653;28;20214;-76
2023/06/11 09:32:40;;;;;;;6.13;5.53;;;33.80;99.90;;;;;;5033495;28;20227;-78
2023/06/11 09:35:10;;;;;;;6.03;5.53;;;33.50;99.90;;;;;;5034425;28;20199;-82
2023/06/11 09:37:41;;;;;;;5.97;5.38;;;33.60;99.90;;;;;;5045221;28;20987;-81
2023/06/11 09:40:11;;;;;;;8.52;6.35;;;33.70;99.90;;;;;;5053901;28;20213;-78
2023/06/11 09:42:40;;;;;;;7.47;6.68;;;33.60;99.90;;;;;;5042145;28;20437;-79
2023/06/11 09:45:13;;;;;;;7.07;6.38;;;33.80;99.90;;;;;;5054617;28;20202;-81
2023/06/11 09:47:40;;;;;;;6.45;5.85;;;33.30;99.90;;;;;;5048857;28;20225;-80
2023/06/11 09:50:11;;;;;;;6.60;6.10;;;33.30;99.90;;;;;;5053770;28;20693;-79
2023/06/11 09:52:39;;;;;;;5.88;5.40;;;33.30;99.90;;;;;;5053640;28;20214;-80
2023/06/11 09:55:08;;;;;;;6.80;6.03;;;33.40;99.90;;;;;;5054125;28;20198;-81
2023/06/11 09:57:36;;;;;;;5.55;5.05;;;33.50;99.90;;;;;;5042322;28;20203;-78
2023/06/11 10:00:06;;;;;;;6.80;5.80;;;33.30;99.90;;;;;;5034263;28;20752;-79
2023/06/11 10:02:34;;;;;;;6.90;6.20;;;33.50;99.90;;;;;;5032896;28;20222;-80
2023/06/11 10:05:02;;;;;;;5.93;5.28;;;33.70;99.90;;;;;;5033512;28;20270;-79
2023/06/11 10:07:32;;;;;;;6.07;5.60;;;34.00;99.90;;;;;;5050186;28;20217;-79
2023/06/11 10:10:00;;;;;;;6.05;5.55;;;33.80;99.90;;;;;;5052200;28;20244;-79
2023/06/11 10:12:32;;;;;;;5.85;5.45;;;33.90;99.90;;;;;;5053666;28;20225;-81
2023/06/11 10:15:00;;;;;;;5.70;5.30;;;33.50;99.90;;;;;;5053110;28;20182;-80
2023/06/11 10:17:27;;;;;;;5.97;5.40;;;33.70;99.90;;;;;;5035094;28;20217;-80
2023/06/11 10:19:55;;;;;;;5.32;4.85;;;33.90;99.90;;;;;;5034600;28;20202;-82
2023/06/11 10:22:32;;;;;;;6.72;4.75;;;34.20;99.90;;;;;;5035049;28;20198;-83
2023/06/11 10:25:05;;;;;;;5.38;4.88;;;34.60;99.90;;;;;;5054852;28;20205;-81
2023/06/11 10:27:37;;;;;;;6.32;5.50;;;34.90;99.90;;;;;;5054730;28;20286;-80
2023/06/11 10:30:05;;;;;;;5.50;5.00;;;35.10;99.90;;;;;;5054321;28;20194;-80
2023/06/11 10:32:32;;;;;;;5.70;5.20;;;35.10;99.90;;;;;;5046532;28;20211;-81
2023/06/11 10:35:02;;;;;;;6.57;5.60;;;35.30;99.90;;;;;;5033931;28;20285;-77
2023/06/11 10:37:32;;;;;;;5.65;5.15;;;35.10;99.90;;;;;;5033406;28;20241;-79
2023/06/11 10:39:59;;;;;;;5.90;5.38;;;35.30;99.90;;;;;;5034546;28;20260;-82
2023/06/11 10:42:29;;;;;;;7.15;5.90;;;35.20;99.90;;;;;;5039585;28;20259;-79
2023/06/11 10:44:59;;;;;;;9.35;5.68;;;34.80;99.90;;;;;;5051045;28;20182;-82
2023/06/11 10:47:27;;;;;;;6.75;6.03;;;34.70;99.90;;;;;;5052401;28;20205;-82
2023/06/11 10:50:06;;;;;;;7.63;5.40;;;34.80;99.90;;;;;;5047436;28;20284;-77
2023/06/11 10:52:32;;;;;;;5.28;4.88;;;34.80;99.90;;;;;;5050149;28;20202;-81
2023/06/11 10:54:59;;;;;;;5.63;5.13;;;34.50;99.90;;;;;;5051875;28;20195;-76
2023/06/11 10:57:29;;;;;;;6.10;5.60;;;34.90;99.90;;;;;;5053943;28;20292;-82
2023/06/11 10:59:57;;;;;;;6.43;5.93;;;34.90;99.90;;;;;;5039921;28;20210;-82
2023/06/11 11:02:25;;;;;;;6.20;5.43;;;35.10;99.90;;;;;;5033600;28;20210;-82
2023/06/11 11:04:53;;;;;;;6.50;5.82;;;35.20;99.90;;;;;;5033088;28;20198;-79
2023/06/11 11:07:20;;;;;;;5.72;5.20;;;35.20;99.90;;;;;;5034441;28;20516;-81
2023/06/11 11:09:47;;;;;;;5.72;5.18;;;35.10;99.90;;;;;;5034533;28;20282;-79
2023/06/11 11:12:15;;;;;;;5.57;5.18;;;35.10;99.90;;;;;;5033848;28;20289;-79
2023/06/11 11:14:43;;;;;;;5.63;5.13;;;35.20;99.90;;;;;;5035103;28;20222;-79
2023/06/11 11:17:10;;;;;;;6.25;5.65;;;35.40;99.90;;;;;;5033832;28;20281;-83
2023/06/11 11:19:40;;;;;;;6.20;5.63;;;35.60;99.90;;;;;;5032843;28;20522;-80
2023/06/11 11:22:07;;;;;;;5.47;4.85;;;35.60;99.90;;;;;;5033072;28;20199;-80
2023/06/11 11:24:37;;;;;;;6.15;5.50;;;35.90;99.90;;;;;;5032889;28;20281;-79
2023/06/11 11:27:06;;;;;;;6.13;5.68;;;36.10;99.90;;;;;;5031118;28;20614;-78
2023/06/11 11:29:33;;;;;;;6.22;5.60;;;35.70;99.90;;;;;;5031969;28;20592;-79
2023/06/11 11:32:02;;;;;;;7.05;5.97;;;35.60;99.90;;;;;;5032026;28;20195;-79
2023/06/11 11:34:29;;;;;;;6.28;5.78;;;35.50;99.90;;;;;;5031604;28;20226;-78
2023/06/11 11:36:55;;;;;;;7.93;5.30;;;35.30;99.90;;;;;;5031397;28;20508;-77
2023/06/11 11:39:22;;;;;;;6.82;5.78;;;35.40;99.90;;;;;;5032203;28;20213;-83
2023/06/11 11:41:50;;;;;;;6.53;5.93;;;35.60;99.90;;;;;;5051089;28;20252;-83
2023/06/11 11:44:17;;;;;;;6.47;5.85;;;35.70;99.90;;;;;;5051387;28;20193;-81
2023/06/11 11:46:45;;;;;;;9.05;6.35;;;35.70;99.90;;;;;;5033129;28;20213;-78
2023/06/11 11:49:13;;;;;;;6.05;5.57;;;35.40;99.90;;;;;;5031683;28;20815;-79
2023/06/11 11:51:41;;;;;;;7.20;6.03;;;35.20;99.90;;;;;;5032705;28;20218;-81
2023/06/11 11:54:12;;;;;;;6.13;5.63;;;35.30;99.90;;;;;;5032773;28;20284;-78
2023/06/11 11:56:39;;;;;;;7.00;5.85;;;35.00;99.90;;;;;;5033359;28;20289;-79
2023/06/11 11:59:16;;;;;;;7.68;6.00;;;34.90;99.90;;;;;;5032767;28;20209;-79
2023/06/11 12:01:54;;;;;;;7.32;5.82;;;34.70;99.90;;;;;;5032990;28;20194;-82
2023/06/11 12:04:32;;;;;;;6.78;6.00;;;34.60;99.90;;;;;;5033157;28;20285;-81
2023/06/11 12:07:03;;;;;;;6.95;6.22;;;34.70;99.90;;;;;;5032879;28;20628;-79
2023/06/11 12:09:30;;;;;;;10.30;6.03;;;34.10;99.90;;;;;;5031764;28;20706;-85
2023/06/11 12:11:57;;;;;;;7.13;6.45;;;33.90;99.90;;;;;;5032751;28;20203;-79
2023/06/11 12:14:24;;;;;;;6.90;6.30;;;34.00;99.90;;;;;;5031672;28;20519;-80
2023/06/11 12:16:51;;;;;;;6.40;5.80;;;33.80;99.90;;;;;;5032210;28;20207;-78
2023/06/11 12:19:18;;;;;;;7.15;6.38;;;33.80;99.90;;;;;;5032182;28;20305;-81
2023/06/11 12:21:46;;;;;;;7.25;6.10;;;33.90;99.90;;;;;;5031237;28;20496;-81
2023/06/11 12:24:15;;;;;;;7.00;6.40;;;33.80;99.90;;;;;;5032236;28;20288;-81
2023/06/11 12:26:42;;;;;;;5.93;5.45;;;33.60;99.90;;;;;;5031779;28;20285;-83
2023/06/11 12:29:10;;;;;;;7.43;6.18;;;33.60;99.90;;;;;;5031381;28;20207;-80
2023/06/11 12:31:37;;;;;;;6.70;6.10;;;33.50;99.90;;;;;;5031656;28;20203;-79
2023/06/11 12:34:05;;;;;;;7.50;6.55;;;33.30;99.90;;;;;;5031727;28;20377;-81
2023/06/11 12:36:32;;;;;;;7.38;6.20;;;33.30;99.90;;;;;;5030635;28;20214;-78
2023/06/11 12:39:03;;;;;;;6.93;6.22;;;33.30;99.90;;;;;;5031568;28;20615;-79
2023/06/11 12:41:31;;;;;;;8.00;6.50;;;33.40;99.90;;;;;;5031561;28;20309;-81
2023/06/11 12:43:58;;;;;;;6.75;6.25;;;33.50;99.90;;;;;;5031292;28;20194;-78
2023/06/11 12:46:26;;;;;;;6.65;6.03;;;33.40;99.90;;;;;;5031062;28;20210;-81
2023/06/11 12:48:53;;;;;;;6.85;6.22;;;33.40;99.90;;;;;;5031279;28;20591;-79
2023/06/11 12:51:20;;;;;;;7.53;6.82;;;33.40;99.90;;;;;;5030905;28;20194;-79